sensor_id;sensor_type;location;lat;lon;timestamp;P1;durP1;ratioP1;P2;durP2;ratioP2
65871;SDS011;52653;50.080;21.992;2023-03-22T00:01:51;47.00;;;32.80;;
65871;SDS011;52653;50.080;21.992;2023-03-22T00:04:44;46.30;;;34.00;;
65871;SDS011;52653;50.080;21.992;2023-03-22T00:07:38;43.10;;;30.00;;
65871;SDS011;52653;50.080;21.992;2023-03-22T00:10:32;42.10;;;30.60;;
65871;SDS011;52653;50.080;21.992;2023-03-22T00:13:26;38.00;;;28.20;;
65871;SDS011;52653;50.080;21.992;2023-03-22T00:16:19;42.30;;;29.90;;
65871;SDS011;52653;50.080;21.992;2023-03-22T00:19:13;40.70;;;30.40;;
65871;SDS011;52653;50.080;21.992;2023-03-22T00:22:06;42.00;;;30.80;;
65871;SDS011;52653;50.080;21.992;2023-03-22T00:25:00;42.50;;;31.90;;
65871;SDS011;52653;50.080;21.992;2023-03-22T00:27:53;41.80;;;29.00;;
65871;SDS011;52653;50.080;21.992;2023-03-22T00:30:51;39.60;;;29.40;;
65871;SDS011;52653;50.080;21.992;2023-03-22T00:33:45;39.50;;;29.30;;
65871;SDS011;52653;50.080;21.992;2023-03-22T00:36:17;39.80;;;29.10;;
65871;SDS011;52653;50.080;21.992;2023-03-22T00:39:03;40.50;;;30.20;;
65871;SDS011;52653;50.080;21.992;2023-03-22T00:41:56;40.30;;;30.40;;
65871;SDS011;52653;50.080;21.992;2023-03-22T00:44:49;35.80;;;25.70;;
65871;SDS011;52653;50.080;21.992;2023-03-22T00:47:42;33.50;;;25.20;;
65871;SDS011;52653;50.080;21.992;2023-03-22T00:50:35;34.20;;;25.00;;
65871;SDS011;52653;50.080;21.992;2023-03-22T00:53:30;38.70;;;28.00;;
65871;SDS011;52653;50.080;21.992;2023-03-22T00:56:24;35.40;;;25.70;;
65871;SDS011;52653;50.080;21.992;2023-03-22T00:59:23;38.60;;;28.60;;
65871;SDS011;52653;50.080;21.992;2023-03-22T01:02:17;60.20;;;42.00;;
65871;SDS011;52653;50.080;21.992;2023-03-22T01:05:31;61.60;;;37.90;;
65871;SDS011;52653;50.080;21.992;2023-03-22T01:08:24;47.00;;;31.50;;
65871;SDS011;52653;50.080;21.992;2023-03-22T01:11:23;42.30;;;29.40;;
65871;SDS011;52653;50.080;21.992;2023-03-22T01:14:17;59.80;;;37.80;;
65871;SDS011;52653;50.080;21.992;2023-03-22T01:17:09;66.20;;;39.00;;
65871;SDS011;52653;50.080;21.992;2023-03-22T01:19:56;66.90;;;38.70;;
65871;SDS011;52653;50.080;21.992;2023-03-22T01:22:49;69.60;;;38.30;;
65871;SDS011;52653;50.080;21.992;2023-03-22T01:25:42;58.80;;;36.70;;
65871;SDS011;52653;50.080;21.992;2023-03-22T01:28:35;66.30;;;36.80;;
65871;SDS011;52653;50.080;21.992;2023-03-22T01:31:29;72.10;;;37.40;;
65871;SDS011;52653;50.080;21.992;2023-03-22T01:34:22;56.30;;;33.80;;
65871;SDS011;52653;50.080;21.992;2023-03-22T01:37:16;61.60;;;35.50;;
65871;SDS011;52653;50.080;21.992;2023-03-22T01:40:13;58.00;;;33.50;;
65871;SDS011;52653;50.080;21.992;2023-03-22T01:43:10;57.60;;;35.00;;
65871;SDS011;52653;50.080;21.992;2023-03-22T01:46:06;58.70;;;31.70;;
65871;SDS011;52653;50.080;21.992;2023-03-22T01:48:59;53.50;;;32.10;;
65871;SDS011;52653;50.080;21.992;2023-03-22T01:51:55;56.30;;;32.60;;
65871;SDS011;52653;50.080;21.992;2023-03-22T01:54:57;47.10;;;31.20;;
65871;SDS011;52653;50.080;21.992;2023-03-22T01:57:54;55.80;;;29.10;;
65871;SDS011;52653;50.080;21.992;2023-03-22T02:00:48;59.50;;;31.70;;
65871;SDS011;52653;50.080;21.992;2023-03-22T02:03:53;48.80;;;29.00;;
65871;SDS011;52653;50.080;21.992;2023-03-22T02:06:51;50.30;;;29.80;;
65871;SDS011;52653;50.080;21.992;2023-03-22T02:09:45;55.20;;;29.80;;
65871;SDS011;52653;50.080;21.992;2023-03-22T02:12:32;52.10;;;29.10;;
65871;SDS011;52653;50.080;21.992;2023-03-22T02:15:28;55.60;;;29.60;;
65871;SDS011;52653;50.080;21.992;2023-03-22T02:18:30;52.60;;;27.60;;
65871;SDS011;52653;50.080;21.992;2023-03-22T02:28:34;47.50;;;27.20;;
65871;SDS011;52653;50.080;21.992;2023-03-22T02:34:58;37.80;;;26.60;;
65871;SDS011;52653;50.080;21.992;2023-03-22T02:41:09;49.50;;;29.20;;
65871;SDS011;52653;50.080;21.992;2023-03-22T02:44:05;49.90;;;31.30;;
65871;SDS011;52653;50.080;21.992;2023-03-22T02:47:07;63.90;;;29.20;;
65871;SDS011;52653;50.080;21.992;2023-03-22T02:50:03;53.00;;;27.90;;
65871;SDS011;52653;50.080;21.992;2023-03-22T02:53:04;65.10;;;30.40;;
65871;SDS011;52653;50.080;21.992;2023-03-22T02:56:00;62.30;;;29.30;;
65871;SDS011;52653;50.080;21.992;2023-03-22T02:58:36;73.30;;;30.40;;
65871;SDS011;52653;50.080;21.992;2023-03-22T03:01:35;53.70;;;29.50;;
65871;SDS011;52653;50.080;21.992;2023-03-22T03:04:33;50.60;;;29.90;;
65871;SDS011;52653;50.080;21.992;2023-03-22T03:07:20;46.00;;;29.90;;
65871;SDS011;52653;50.080;21.992;2023-03-22T03:10:16;61.90;;;32.30;;
65871;SDS011;52653;50.080;21.992;2023-03-22T03:13:13;55.10;;;31.90;;
65871;SDS011;52653;50.080;21.992;2023-03-22T03:16:01;71.00;;;33.60;;
65871;SDS011;52653;50.080;21.992;2023-03-22T03:18:50;76.70;;;33.10;;
65871;SDS011;52653;50.080;21.992;2023-03-22T03:21:50;72.30;;;33.20;;
65871;SDS011;52653;50.080;21.992;2023-03-22T03:24:52;55.50;;;30.50;;
65871;SDS011;52653;50.080;21.992;2023-03-22T03:27:52;53.10;;;31.30;;
65871;SDS011;52653;50.080;21.992;2023-03-22T03:30:54;45.70;;;30.30;;
65871;SDS011;52653;50.080;21.992;2023-03-22T03:33:55;50.90;;;30.10;;
65871;SDS011;52653;50.080;21.992;2023-03-22T03:36:45;46.60;;;30.20;;
65871;SDS011;52653;50.080;21.992;2023-03-22T03:39:38;37.50;;;27.10;;
65871;SDS011;52653;50.080;21.992;2023-03-22T03:42:32;41.70;;;27.70;;
65871;SDS011;52653;50.080;21.992;2023-03-22T03:45:27;39.80;;;27.10;;
65871;SDS011;52653;50.080;21.992;2023-03-22T03:48:21;36.60;;;26.80;;
65871;SDS011;52653;50.080;21.992;2023-03-22T03:51:17;38.40;;;24.70;;
65871;SDS011;52653;50.080;21.992;2023-03-22T03:54:10;38.70;;;25.90;;
65871;SDS011;52653;50.080;21.992;2023-03-22T03:57:04;42.10;;;28.10;;
65871;SDS011;52653;50.080;21.992;2023-03-22T03:59:57;39.60;;;28.60;;
65871;SDS011;52653;50.080;21.992;2023-03-22T04:02:53;42.30;;;28.20;;
65871;SDS011;52653;50.080;21.992;2023-03-22T04:05:50;38.00;;;26.10;;
65871;SDS011;52653;50.080;21.992;2023-03-22T04:08:44;38.80;;;24.90;;
65871;SDS011;52653;50.080;21.992;2023-03-22T04:11:42;40.20;;;27.10;;
65871;SDS011;52653;50.080;21.992;2023-03-22T04:14:37;42.00;;;27.10;;
65871;SDS011;52653;50.080;21.992;2023-03-22T04:17:30;42.60;;;27.80;;
65871;SDS011;52653;50.080;21.992;2023-03-22T04:20:24;45.30;;;28.30;;
65871;SDS011;52653;50.080;21.992;2023-03-22T04:23:18;41.50;;;25.60;;
65871;SDS011;52653;50.080;21.992;2023-03-22T04:26:06;41.50;;;25.80;;
65871;SDS011;52653;50.080;21.992;2023-03-22T04:29:00;47.00;;;27.80;;
65871;SDS011;52653;50.080;21.992;2023-03-22T04:31:54;42.40;;;25.30;;
65871;SDS011;52653;50.080;21.992;2023-03-22T04:34:47;43.50;;;26.20;;
65871;SDS011;52653;50.080;21.992;2023-03-22T04:37:40;45.00;;;26.50;;
65871;SDS011;52653;50.080;21.992;2023-03-22T04:40:34;48.30;;;27.30;;
65871;SDS011;52653;50.080;21.992;2023-03-22T04:43:28;49.30;;;28.40;;
65871;SDS011;52653;50.080;21.992;2023-03-22T04:46:23;51.20;;;30.40;;
65871;SDS011;52653;50.080;21.992;2023-03-22T04:49:16;56.00;;;29.10;;
65871;SDS011;52653;50.080;21.992;2023-03-22T04:52:09;50.40;;;27.60;;
65871;SDS011;52653;50.080;21.992;2023-03-22T04:55:03;45.40;;;25.40;;
65871;SDS011;52653;50.080;21.992;2023-03-22T04:57:56;46.80;;;23.50;;
65871;SDS011;52653;50.080;21.992;2023-03-22T05:00:50;39.90;;;22.10;;
65871;SDS011;52653;50.080;21.992;2023-03-22T05:03:44;38.90;;;23.30;;
65871;SDS011;52653;50.080;21.992;2023-03-22T05:06:37;44.30;;;22.00;;
65871;SDS011;52653;50.080;21.992;2023-03-22T05:09:30;42.50;;;22.50;;
65871;SDS011;52653;50.080;21.992;2023-03-22T05:12:23;37.80;;;20.60;;
65871;SDS011;52653;50.080;21.992;2023-03-22T05:15:17;33.60;;;19.90;;
65871;SDS011;52653;50.080;21.992;2023-03-22T05:18:10;34.40;;;19.10;;
65871;SDS011;52653;50.080;21.992;2023-03-22T05:21:04;27.50;;;18.00;;
65871;SDS011;52653;50.080;21.992;2023-03-22T05:24:02;29.30;;;18.10;;
65871;SDS011;52653;50.080;21.992;2023-03-22T05:26:56;28.60;;;17.50;;
65871;SDS011;52653;50.080;21.992;2023-03-22T05:29:52;29.70;;;18.00;;
65871;SDS011;52653;50.080;21.992;2023-03-22T05:32:33;29.50;;;17.20;;
65871;SDS011;52653;50.080;21.992;2023-03-22T05:35:16;26.90;;;17.40;;
65871;SDS011;52653;50.080;21.992;2023-03-22T05:38:09;30.40;;;17.70;;
65871;SDS011;52653;50.080;21.992;2023-03-22T05:40:49;29.60;;;17.70;;
65871;SDS011;52653;50.080;21.992;2023-03-22T05:43:23;29.30;;;18.30;;
65871;SDS011;52653;50.080;21.992;2023-03-22T05:46:16;32.50;;;18.30;;
65871;SDS011;52653;50.080;21.992;2023-03-22T05:49:11;39.60;;;19.80;;
65871;SDS011;52653;50.080;21.992;2023-03-22T05:51:55;36.80;;;17.90;;
65871;SDS011;52653;50.080;21.992;2023-03-22T05:54:48;31.00;;;18.10;;
65871;SDS011;52653;50.080;21.992;2023-03-22T05:57:42;29.20;;;18.00;;
65871;SDS011;52653;50.080;21.992;2023-03-22T06:00:30;30.80;;;17.00;;
65871;SDS011;52653;50.080;21.992;2023-03-22T06:03:42;31.40;;;16.70;;
65871;SDS011;52653;50.080;21.992;2023-03-22T06:06:35;30.90;;;16.70;;
65871;SDS011;52653;50.080;21.992;2023-03-22T06:09:28;26.20;;;17.30;;
65871;SDS011;52653;50.080;21.992;2023-03-22T06:12:21;25.40;;;17.00;;
65871;SDS011;52653;50.080;21.992;2023-03-22T06:15:23;27.50;;;15.50;;
65871;SDS011;52653;50.080;21.992;2023-03-22T06:18:25;26.30;;;15.20;;
65871;SDS011;52653;50.080;21.992;2023-03-22T06:21:18;23.80;;;15.20;;
65871;SDS011;52653;50.080;21.992;2023-03-22T06:24:11;30.00;;;16.00;;
65871;SDS011;52653;50.080;21.992;2023-03-22T06:27:15;23.70;;;13.70;;
65871;SDS011;52653;50.080;21.992;2023-03-22T06:29:52;21.10;;;13.30;;
65871;SDS011;52653;50.080;21.992;2023-03-22T06:33:07;22.70;;;13.50;;
65871;SDS011;52653;50.080;21.992;2023-03-22T06:35:45;24.00;;;14.60;;
65871;SDS011;52653;50.080;21.992;2023-03-22T06:38:37;24.90;;;16.40;;
65871;SDS011;52653;50.080;21.992;2023-03-22T06:41:32;26.00;;;16.80;;
65871;SDS011;52653;50.080;21.992;2023-03-22T06:44:18;23.40;;;15.80;;
65871;SDS011;52653;50.080;21.992;2023-03-22T06:46:51;22.50;;;14.70;;
65871;SDS011;52653;50.080;21.992;2023-03-22T06:49:43;22.50;;;14.70;;
65871;SDS011;52653;50.080;21.992;2023-03-22T06:52:36;23.90;;;15.70;;
65871;SDS011;52653;50.080;21.992;2023-03-22T06:55:29;25.60;;;15.50;;
65871;SDS011;52653;50.080;21.992;2023-03-22T06:58:23;22.80;;;16.00;;
65871;SDS011;52653;50.080;21.992;2023-03-22T07:01:18;25.00;;;16.30;;
65871;SDS011;52653;50.080;21.992;2023-03-22T07:03:57;27.00;;;17.70;;
65871;SDS011;52653;50.080;21.992;2023-03-22T07:06:51;26.60;;;17.80;;
65871;SDS011;52653;50.080;21.992;2023-03-22T07:09:44;26.90;;;16.40;;
65871;SDS011;52653;50.080;21.992;2023-03-22T07:12:37;27.00;;;16.80;;
65871;SDS011;52653;50.080;21.992;2023-03-22T07:15:31;23.40;;;17.50;;
65871;SDS011;52653;50.080;21.992;2023-03-22T07:18:24;24.50;;;18.00;;
65871;SDS011;52653;50.080;21.992;2023-03-22T07:21:18;26.70;;;18.70;;
65871;SDS011;52653;50.080;21.992;2023-03-22T07:24:11;21.30;;;15.10;;
65871;SDS011;52653;50.080;21.992;2023-03-22T07:27:04;19.30;;;13.50;;
65871;SDS011;52653;50.080;21.992;2023-03-22T07:29:57;21.60;;;15.40;;
65871;SDS011;52653;50.080;21.992;2023-03-22T07:32:51;24.00;;;16.40;;
65871;SDS011;52653;50.080;21.992;2023-03-22T07:35:38;24.30;;;17.70;;
65871;SDS011;52653;50.080;21.992;2023-03-22T07:38:22;21.90;;;15.40;;
65871;SDS011;52653;50.080;21.992;2023-03-22T07:41:16;21.80;;;15.10;;
65871;SDS011;52653;50.080;21.992;2023-03-22T07:44:09;23.00;;;17.40;;
65871;SDS011;52653;50.080;21.992;2023-03-22T07:47:10;22.50;;;16.80;;
65871;SDS011;52653;50.080;21.992;2023-03-22T07:50:02;23.20;;;17.10;;
65871;SDS011;52653;50.080;21.992;2023-03-22T07:52:57;21.70;;;16.60;;
65871;SDS011;52653;50.080;21.992;2023-03-22T07:55:50;23.90;;;17.10;;
65871;SDS011;52653;50.080;21.992;2023-03-22T07:58:38;23.50;;;16.90;;
65871;SDS011;52653;50.080;21.992;2023-03-22T08:01:23;21.70;;;16.10;;
65871;SDS011;52653;50.080;21.992;2023-03-22T08:04:31;20.90;;;16.50;;
65871;SDS011;52653;50.080;21.992;2023-03-22T08:07:36;20.70;;;14.90;;
65871;SDS011;52653;50.080;21.992;2023-03-22T08:10:29;21.10;;;15.60;;
65871;SDS011;52653;50.080;21.992;2023-03-22T08:13:02;19.80;;;15.40;;
65871;SDS011;52653;50.080;21.992;2023-03-22T08:15:39;19.60;;;14.80;;
65871;SDS011;52653;50.080;21.992;2023-03-22T08:18:25;18.60;;;14.10;;
65871;SDS011;52653;50.080;21.992;2023-03-22T08:21:09;18.50;;;14.30;;
65871;SDS011;52653;50.080;21.992;2023-03-22T08:24:02;19.70;;;14.70;;
65871;SDS011;52653;50.080;21.992;2023-03-22T08:27:01;17.90;;;13.20;;
65871;SDS011;52653;50.080;21.992;2023-03-22T08:29:54;18.10;;;13.50;;
65871;SDS011;52653;50.080;21.992;2023-03-22T08:32:47;17.90;;;14.10;;
65871;SDS011;52653;50.080;21.992;2023-03-22T08:35:30;19.30;;;15.20;;
65871;SDS011;52653;50.080;21.992;2023-03-22T08:38:17;18.90;;;13.30;;
65871;SDS011;52653;50.080;21.992;2023-03-22T08:41:10;16.70;;;13.00;;
65871;SDS011;52653;50.080;21.992;2023-03-22T08:43:53;18.90;;;14.90;;
65871;SDS011;52653;50.080;21.992;2023-03-22T08:46:47;18.50;;;13.40;;
65871;SDS011;52653;50.080;21.992;2023-03-22T08:49:19;20.00;;;13.00;;
65871;SDS011;52653;50.080;21.992;2023-03-22T08:52:10;16.40;;;12.30;;
65871;SDS011;52653;50.080;21.992;2023-03-22T08:55:11;16.00;;;12.60;;
65871;SDS011;52653;50.080;21.992;2023-03-22T08:58:04;15.80;;;12.60;;
65871;SDS011;52653;50.080;21.992;2023-03-22T09:00:59;17.20;;;12.60;;
65871;SDS011;52653;50.080;21.992;2023-03-22T09:03:53;18.70;;;13.50;;
65871;SDS011;52653;50.080;21.992;2023-03-22T09:06:46;17.90;;;13.70;;
65871;SDS011;52653;50.080;21.992;2023-03-22T09:09:39;17.30;;;13.40;;
65871;SDS011;52653;50.080;21.992;2023-03-22T09:12:23;22.60;;;14.70;;
65871;SDS011;52653;50.080;21.992;2023-03-22T09:14:58;17.20;;;13.90;;
65871;SDS011;52653;50.080;21.992;2023-03-22T09:17:35;19.40;;;14.10;;
65871;SDS011;52653;50.080;21.992;2023-03-22T09:20:28;19.00;;;14.20;;
65871;SDS011;52653;50.080;21.992;2023-03-22T09:23:21;16.80;;;13.60;;
65871;SDS011;52653;50.080;21.992;2023-03-22T09:26:15;20.50;;;15.00;;
65871;SDS011;52653;50.080;21.992;2023-03-22T09:29:08;18.90;;;14.50;;
65871;SDS011;52653;50.080;21.992;2023-03-22T09:32:01;17.70;;;13.00;;
65871;SDS011;52653;50.080;21.992;2023-03-22T09:34:55;18.80;;;12.80;;
65871;SDS011;52653;50.080;21.992;2023-03-22T09:37:48;18.40;;;12.80;;
65871;SDS011;52653;50.080;21.992;2023-03-22T09:40:45;17.20;;;12.80;;
65871;SDS011;52653;50.080;21.992;2023-03-22T09:43:49;17.60;;;12.80;;
65871;SDS011;52653;50.080;21.992;2023-03-22T09:46:39;17.60;;;13.40;;
65871;SDS011;52653;50.080;21.992;2023-03-22T09:49:17;17.30;;;12.90;;
65871;SDS011;52653;50.080;21.992;2023-03-22T09:51:53;17.80;;;12.80;;
65871;SDS011;52653;50.080;21.992;2023-03-22T09:54:46;20.20;;;13.30;;
65871;SDS011;52653;50.080;21.992;2023-03-22T09:57:23;19.80;;;14.30;;
65871;SDS011;52653;50.080;21.992;2023-03-22T10:00:24;19.20;;;14.00;;
65871;SDS011;52653;50.080;21.992;2023-03-22T10:03:26;18.20;;;13.00;;
65871;SDS011;52653;50.080;21.992;2023-03-22T10:06:16;16.70;;;12.40;;
65871;SDS011;52653;50.080;21.992;2023-03-22T10:09:12;19.20;;;13.60;;
65871;SDS011;52653;50.080;21.992;2023-03-22T10:12:14;16.50;;;12.00;;
65871;SDS011;52653;50.080;21.992;2023-03-22T10:15:14;16.00;;;11.60;;
65871;SDS011;52653;50.080;21.992;2023-03-22T10:18:15;17.10;;;12.30;;
65871;SDS011;52653;50.080;21.992;2023-03-22T10:21:09;15.10;;;11.10;;
65871;SDS011;52653;50.080;21.992;2023-03-22T10:23:55;15.70;;;11.30;;
65871;SDS011;52653;50.080;21.992;2023-03-22T10:26:51;15.50;;;11.30;;
65871;SDS011;52653;50.080;21.992;2023-03-22T10:29:49;15.20;;;10.80;;
65871;SDS011;52653;50.080;21.992;2023-03-22T10:32:47;15.90;;;11.40;;
65871;SDS011;52653;50.080;21.992;2023-03-22T10:35:47;14.50;;;11.40;;
65871;SDS011;52653;50.080;21.992;2023-03-22T10:38:24;16.60;;;11.40;;
65871;SDS011;52653;50.080;21.992;2023-03-22T10:41:00;12.10;;;8.50;;
65871;SDS011;52653;50.080;21.992;2023-03-22T10:46:22;15.00;;;10.00;;
65871;SDS011;52653;50.080;21.992;2023-03-22T10:48:58;14.00;;;10.00;;
65871;SDS011;52653;50.080;21.992;2023-03-22T10:51:53;12.60;;;8.80;;
65871;SDS011;52653;50.080;21.992;2023-03-22T10:54:52;12.90;;;9.10;;
65871;SDS011;52653;50.080;21.992;2023-03-22T10:57:55;9.90;;;7.00;;
65871;SDS011;52653;50.080;21.992;2023-03-22T11:03:26;10.60;;;7.30;;
65871;SDS011;52653;50.080;21.992;2023-03-22T11:06:13;11.20;;;7.50;;
65871;SDS011;52653;50.080;21.992;2023-03-22T11:08:47;11.60;;;7.20;;
65871;SDS011;52653;50.080;21.992;2023-03-22T11:11:34;11.00;;;7.00;;
65871;SDS011;52653;50.080;21.992;2023-03-22T11:14:40;9.40;;;7.00;;
65871;SDS011;52653;50.080;21.992;2023-03-22T11:17:22;10.20;;;6.10;;
65871;SDS011;52653;50.080;21.992;2023-03-22T11:20:17;10.10;;;6.60;;
65871;SDS011;52653;50.080;21.992;2023-03-22T11:23:11;9.30;;;6.40;;
65871;SDS011;52653;50.080;21.992;2023-03-22T11:26:03;8.80;;;6.30;;
65871;SDS011;52653;50.080;21.992;2023-03-22T11:29:03;8.80;;;6.10;;
65871;SDS011;52653;50.080;21.992;2023-03-22T11:31:55;9.50;;;6.70;;
65871;SDS011;52653;50.080;21.992;2023-03-22T11:34:52;10.30;;;7.00;;
65871;SDS011;52653;50.080;21.992;2023-03-22T11:37:53;9.50;;;6.80;;
65871;SDS011;52653;50.080;21.992;2023-03-22T11:40:47;8.50;;;6.00;;
65871;SDS011;52653;50.080;21.992;2023-03-22T11:43:45;8.10;;;5.00;;
65871;SDS011;52653;50.080;21.992;2023-03-22T11:46:48;7.20;;;4.70;;
65871;SDS011;52653;50.080;21.992;2023-03-22T11:49:41;7.60;;;5.10;;
65871;SDS011;52653;50.080;21.992;2023-03-22T11:52:37;7.30;;;4.50;;
65871;SDS011;52653;50.080;21.992;2023-03-22T11:55:29;8.20;;;5.30;;
65871;SDS011;52653;50.080;21.992;2023-03-22T11:58:26;8.20;;;5.50;;
65871;SDS011;52653;50.080;21.992;2023-03-22T12:01:35;8.60;;;5.40;;
65871;SDS011;52653;50.080;21.992;2023-03-22T12:07:25;7.50;;;5.10;;
65871;SDS011;52653;50.080;21.992;2023-03-22T12:10:21;7.60;;;4.80;;
65871;SDS011;52653;50.080;21.992;2023-03-22T12:13:21;9.00;;;5.00;;
65871;SDS011;52653;50.080;21.992;2023-03-22T12:16:20;7.40;;;4.50;;
65871;SDS011;52653;50.080;21.992;2023-03-22T12:19:23;8.10;;;5.50;;
65871;SDS011;52653;50.080;21.992;2023-03-22T12:22:27;8.60;;;5.50;;
65871;SDS011;52653;50.080;21.992;2023-03-22T12:25:12;8.10;;;5.30;;
65871;SDS011;52653;50.080;21.992;2023-03-22T12:27:55;7.80;;;5.10;;
65871;SDS011;52653;50.080;21.992;2023-03-22T12:33:47;8.40;;;5.10;;
65871;SDS011;52653;50.080;21.992;2023-03-22T12:36:43;7.50;;;4.70;;
65871;SDS011;52653;50.080;21.992;2023-03-22T12:39:42;6.70;;;4.30;;
65871;SDS011;52653;50.080;21.992;2023-03-22T12:42:35;8.10;;;4.70;;
65871;SDS011;52653;50.080;21.992;2023-03-22T12:45:41;6.50;;;4.00;;
65871;SDS011;52653;50.080;21.992;2023-03-22T12:48:41;7.80;;;4.50;;
65871;SDS011;52653;50.080;21.992;2023-03-22T12:51:17;7.20;;;4.30;;
65871;SDS011;52653;50.080;21.992;2023-03-22T12:53:50;7.20;;;4.50;;
65871;SDS011;52653;50.080;21.992;2023-03-22T12:56:27;9.40;;;5.10;;
65871;SDS011;52653;50.080;21.992;2023-03-22T12:59:11;6.90;;;4.50;;
65871;SDS011;52653;50.080;21.992;2023-03-22T13:01:50;7.50;;;4.20;;
65871;SDS011;52653;50.080;21.992;2023-03-22T13:04:45;7.70;;;4.50;;
65871;SDS011;52653;50.080;21.992;2023-03-22T13:07:33;6.30;;;4.10;;
65871;SDS011;52653;50.080;21.992;2023-03-22T13:13:34;6.80;;;4.30;;
65871;SDS011;52653;50.080;21.992;2023-03-22T13:16:19;7.50;;;4.60;;
65871;SDS011;52653;50.080;21.992;2023-03-22T13:19:24;7.60;;;4.90;;
65871;SDS011;52653;50.080;21.992;2023-03-22T13:22:20;6.70;;;4.20;;
65871;SDS011;52653;50.080;21.992;2023-03-22T13:25:16;6.40;;;4.10;;
65871;SDS011;52653;50.080;21.992;2023-03-22T13:28:11;7.60;;;4.60;;
65871;SDS011;52653;50.080;21.992;2023-03-22T13:30:58;7.90;;;4.30;;
65871;SDS011;52653;50.080;21.992;2023-03-22T13:33:32;8.40;;;4.50;;
65871;SDS011;52653;50.080;21.992;2023-03-22T13:36:21;7.70;;;5.00;;
65871;SDS011;52653;50.080;21.992;2023-03-22T13:39:09;7.50;;;5.20;;
65871;SDS011;52653;50.080;21.992;2023-03-22T13:41:49;8.30;;;4.80;;
65871;SDS011;52653;50.080;21.992;2023-03-22T13:44:52;7.90;;;5.20;;
65871;SDS011;52653;50.080;21.992;2023-03-22T13:47:35;7.80;;;4.60;;
65871;SDS011;52653;50.080;21.992;2023-03-22T13:50:27;7.80;;;4.80;;
65871;SDS011;52653;50.080;21.992;2023-03-22T13:53:22;8.60;;;4.70;;
65871;SDS011;52653;50.080;21.992;2023-03-22T13:56:29;7.90;;;5.10;;
65871;SDS011;52653;50.080;21.992;2023-03-22T13:59:04;6.70;;;4.50;;
65871;SDS011;52653;50.080;21.992;2023-03-22T14:01:42;7.40;;;5.20;;
65871;SDS011;52653;50.080;21.992;2023-03-22T14:04:31;8.80;;;5.50;;
65871;SDS011;52653;50.080;21.992;2023-03-22T14:07:11;6.90;;;4.60;;
65871;SDS011;52653;50.080;21.992;2023-03-22T14:09:54;7.60;;;5.00;;
65871;SDS011;52653;50.080;21.992;2023-03-22T14:12:47;8.00;;;4.80;;
65871;SDS011;52653;50.080;21.992;2023-03-22T14:15:44;8.20;;;5.10;;
65871;SDS011;52653;50.080;21.992;2023-03-22T14:18:24;8.30;;;4.80;;
65871;SDS011;52653;50.080;21.992;2023-03-22T14:24:16;6.90;;;4.30;;
65871;SDS011;52653;50.080;21.992;2023-03-22T14:27:05;7.40;;;4.60;;
65871;SDS011;52653;50.080;21.992;2023-03-22T14:29:41;7.70;;;4.60;;
65871;SDS011;52653;50.080;21.992;2023-03-22T14:32:22;6.90;;;4.30;;
65871;SDS011;52653;50.080;21.992;2023-03-22T14:35:18;7.20;;;4.80;;
65871;SDS011;52653;50.080;21.992;2023-03-22T14:38:15;7.30;;;4.70;;
65871;SDS011;52653;50.080;21.992;2023-03-22T14:41:12;7.70;;;4.50;;
65871;SDS011;52653;50.080;21.992;2023-03-22T14:44:09;9.30;;;5.00;;
65871;SDS011;52653;50.080;21.992;2023-03-22T14:46:58;6.80;;;4.50;;
65871;SDS011;52653;50.080;21.992;2023-03-22T14:49:52;7.40;;;4.80;;
65871;SDS011;52653;50.080;21.992;2023-03-22T14:52:38;7.50;;;5.00;;
65871;SDS011;52653;50.080;21.992;2023-03-22T14:55:32;6.80;;;4.80;;
65871;SDS011;52653;50.080;21.992;2023-03-22T14:58:28;7.60;;;4.50;;
65871;SDS011;52653;50.080;21.992;2023-03-22T15:01:10;6.40;;;4.00;;
65871;SDS011;52653;50.080;21.992;2023-03-22T15:03:47;11.60;;;5.00;;
65871;SDS011;52653;50.080;21.992;2023-03-22T15:06:46;7.80;;;5.00;;
65871;SDS011;52653;50.080;21.992;2023-03-22T15:09:40;8.30;;;5.00;;
65871;SDS011;52653;50.080;21.992;2023-03-22T15:12:14;9.40;;;5.10;;
65871;SDS011;52653;50.080;21.992;2023-03-22T15:15:09;9.20;;;5.00;;
65871;SDS011;52653;50.080;21.992;2023-03-22T15:17:46;8.40;;;4.50;;
65871;SDS011;52653;50.080;21.992;2023-03-22T15:20:36;7.70;;;4.20;;
65871;SDS011;52653;50.080;21.992;2023-03-22T15:23:12;7.90;;;4.50;;
65871;SDS011;52653;50.080;21.992;2023-03-22T15:26:07;7.00;;;4.10;;
65871;SDS011;52653;50.080;21.992;2023-03-22T15:28:52;7.30;;;4.60;;
65871;SDS011;52653;50.080;21.992;2023-03-22T15:31:31;7.40;;;4.20;;
65871;SDS011;52653;50.080;21.992;2023-03-22T15:34:17;7.20;;;4.40;;
65871;SDS011;52653;50.080;21.992;2023-03-22T15:37:10;7.50;;;4.50;;
65871;SDS011;52653;50.080;21.992;2023-03-22T15:39:47;9.20;;;4.60;;
65871;SDS011;52653;50.080;21.992;2023-03-22T15:42:39;7.40;;;4.40;;
65871;SDS011;52653;50.080;21.992;2023-03-22T15:45:31;8.60;;;5.20;;
65871;SDS011;52653;50.080;21.992;2023-03-22T15:48:22;8.50;;;5.00;;
65871;SDS011;52653;50.080;21.992;2023-03-22T15:51:08;10.80;;;5.70;;
65871;SDS011;52653;50.080;21.992;2023-03-22T15:54:01;10.20;;;6.90;;
65871;SDS011;52653;50.080;21.992;2023-03-22T15:56:39;18.30;;;9.90;;
65871;SDS011;52653;50.080;21.992;2023-03-22T15:59:28;22.70;;;10.60;;
65871;SDS011;52653;50.080;21.992;2023-03-22T16:02:16;28.90;;;10.30;;
65871;SDS011;52653;50.080;21.992;2023-03-22T16:04:56;19.90;;;8.70;;
65871;SDS011;52653;50.080;21.992;2023-03-22T16:07:28;16.10;;;8.20;;
65871;SDS011;52653;50.080;21.992;2023-03-22T16:10:00;11.30;;;7.30;;
65871;SDS011;52653;50.080;21.992;2023-03-22T16:12:32;12.70;;;7.90;;
65871;SDS011;52653;50.080;21.992;2023-03-22T16:15:09;14.70;;;9.20;;
65871;SDS011;52653;50.080;21.992;2023-03-22T16:17:45;19.10;;;12.20;;
65871;SDS011;52653;50.080;21.992;2023-03-22T16:20:17;19.10;;;11.30;;
65871;SDS011;52653;50.080;21.992;2023-03-22T16:22:52;18.40;;;12.20;;
65871;SDS011;52653;50.080;21.992;2023-03-22T16:25:28;21.60;;;13.20;;
65871;SDS011;52653;50.080;21.992;2023-03-22T16:28:02;16.90;;;12.30;;
65871;SDS011;52653;50.080;21.992;2023-03-22T16:30:34;20.70;;;12.50;;
65871;SDS011;52653;50.080;21.992;2023-03-22T16:33:12;19.50;;;13.50;;
65871;SDS011;52653;50.080;21.992;2023-03-22T16:35:51;22.80;;;14.00;;
65871;SDS011;52653;50.080;21.992;2023-03-22T16:38:23;21.90;;;14.30;;
65871;SDS011;52653;50.080;21.992;2023-03-22T16:40:58;21.80;;;14.20;;
65871;SDS011;52653;50.080;21.992;2023-03-22T16:43:33;20.80;;;13.80;;
65871;SDS011;52653;50.080;21.992;2023-03-22T16:46:07;22.30;;;13.90;;
65871;SDS011;52653;50.080;21.992;2023-03-22T16:48:48;19.30;;;12.30;;
65871;SDS011;52653;50.080;21.992;2023-03-22T16:51:21;17.90;;;12.00;;
65871;SDS011;52653;50.080;21.992;2023-03-22T16:53:58;18.10;;;11.20;;
65871;SDS011;52653;50.080;21.992;2023-03-22T16:56:30;18.00;;;10.60;;
65871;SDS011;52653;50.080;21.992;2023-03-22T16:59:02;17.20;;;10.50;;
65871;SDS011;52653;50.080;21.992;2023-03-22T17:01:37;18.40;;;11.40;;
65871;SDS011;52653;50.080;21.992;2023-03-22T17:04:08;16.60;;;10.90;;